Time;durP1;ratioP1;P1;durP2;ratioP2;P2;SDS_P1;SDS_P2;PMS_P1;PMS_P2;Temp;Humidity;BMP_temperature;BMP_pressure;BME280_temperature;BME280_humidity;BME280_pressure;Samples;Min_cycle;Max_cycle;Signal;HPM_P1;HPM_P2
2024/04/17 00:01:01;;;;;;;;;3.50;2.83;;;;;11.04;58.21;101344.53;2180238;25;2750211;-74
2024/04/17 00:02:15;;;;;;;;;4.00;3.00;;;;;11.02;58.92;101347.22;2193144;26;2745012;-74
2024/04/17 00:03:29;;;;;;;;;3.33;2.33;;;;;10.96;59.14;101347.38;2168244;26;2742933;-74
2024/04/17 00:04:43;;;;;;;;;6.33;4.00;;;;;10.94;59.07;101353.59;2169877;26;2750216;-74
2024/04/17 00:05:56;;;;;;;;;3.83;3.00;;;;;10.92;59.29;101343.09;2181635;25;2742903;-74
2024/04/17 00:07:07;;;;;;;;;5.00;4.00;;;;;10.91;58.73;101344.00;2156465;25;2754403;-74
2024/04/17 00:08:21;;;;;;;;;3.83;3.00;;;;;10.94;59.54;101346.53;2208429;26;2746057;-74
2024/04/17 00:09:35;;;;;;;;;4.00;2.33;;;;;10.94;59.48;101348.31;2207967;25;2742928;-74
2024/04/17 00:10:49;;;;;;;;;2.50;2.00;;;;;10.91;59.41;101357.16;2180949;26;2743981;-74
2024/04/17 00:12:02;;;;;;;;;3.00;3.00;;;;;10.85;59.43;101350.28;2209886;25;2740848;-75
2024/04/17 00:13:16;;;;;;;;;3.17;2.00;;;;;10.85;59.35;101360.78;2168003;26;2743962;-74
2024/04/17 00:14:32;;;;;;;;;1.67;1.67;;;;;10.77;58.96;101355.72;2168437;26;2741902;-74
2024/04/17 00:15:46;;;;;;;;;3.00;3.00;;;;;10.71;59.64;101353.25;2183517;26;2734568;-75
2024/04/17 00:16:59;;;;;;;;;2.67;2.00;;;;;10.68;59.56;101353.31;2184331;26;2739857;-74
2024/04/17 00:18:13;;;;;;;;;2.17;2.00;;;;;10.69;59.63;101355.03;2203176;26;2731443;-74
2024/04/17 00:19:27;;;;;;;;;2.00;1.83;;;;;10.69;59.29;101349.78;2208254;26;2729410;-74
2024/04/17 00:20:41;;;;;;;;;2.50;2.33;;;;;10.67;58.84;101354.19;2182130;25;2734607;-74
2024/04/17 00:21:54;;;;;;;;;4.50;2.00;;;;;10.68;59.64;101356.81;2183563;26;2728417;-74
2024/04/17 00:23:08;;;;;;;;;2.00;2.00;;;;;10.68;60.18;101354.19;2170374;26;2737729;-74
2024/04/17 00:24:22;;;;;;;;;5.33;1.67;;;;;10.69;59.52;101353.25;2169164;26;2736698;-74
2024/04/17 00:25:36;;;;;;;;;2.33;2.00;;;;;10.70;59.35;101354.13;2167820;26;2743943;-74
2024/04/17 00:26:49;;;;;;;;;4.00;2.33;;;;;10.69;59.82;101355.88;2168861;26;2734615;-74
2024/04/17 00:28:03;;;;;;;;;3.33;2.50;;;;;10.72;58.65;101362.84;2167509;26;2734584;-74
2024/04/17 00:29:17;;;;;;;;;3.33;1.33;;;;;10.70;59.26;101359.38;2169548;26;2732504;-74
2024/04/17 00:30:31;;;;;;;;;4.00;3.83;;;;;10.66;59.15;101363.00;2169837;26;2733833;-75
2024/04/17 00:31:45;;;;;;;;;1.50;1.50;;;;;10.66;59.22;101358.59;2182738;26;2737740;-74
2024/04/17 00:32:58;;;;;;;;;2.50;2.00;;;;;10.64;58.87;101360.38;2167274;26;2741887;-74
2024/04/17 00:34:12;;;;;;;;;3.17;2.17;;;;;10.65;59.48;101361.25;2168859;26;2732513;-74
2024/04/17 00:35:26;;;;;;;;;4.83;4.17;;;;;10.67;58.92;101362.06;2178843;26;2750268;-75
2024/04/17 00:36:40;;;;;;;;;2.50;0.00;;;;;10.64;59.68;101356.91;2184107;26;2732561;-74
2024/04/17 00:37:53;;;;;;;;;3.17;1.50;;;;;10.65;59.58;101356.00;2174133;26;2734568;-74
2024/04/17 00:39:07;;;;;;;;;1.17;1.17;;;;;10.62;59.16;101350.84;2179727;25;2739815;-75
2024/04/17 00:40:21;;;;;;;;;2.00;2.00;;;;;10.60;59.24;101350.84;2178014;26;2736754;-75
2024/04/17 00:41:35;;;;;;;;;3.83;2.17;;;;;10.61;59.43;101349.97;2182597;26;2748151;-75
2024/04/17 00:42:49;;;;;;;;;2.33;2.00;;;;;10.57;58.85;101350.91;2178578;26;2754454;-75
2024/04/17 00:44:03;;;;;;;;;3.17;2.17;;;;;10.58;59.60;101350.91;2182866;26;2732519;-75
2024/04/17 00:45:17;;;;;;;;;3.00;3.00;;;;;10.57;59.40;101349.16;2181312;26;2746026;-75
2024/04/17 00:46:30;;;;;;;;;1.50;1.00;;;;;10.54;58.93;101349.22;2183003;25;2737759;-75
2024/04/17 00:47:44;;;;;;;;;3.33;2.83;;;;;10.53;59.38;101349.25;2184054;25;2747099;-75
2024/04/17 00:48:58;;;;;;;;;2.00;2.00;;;;;10.52;58.95;101343.13;2177368;26;2730422;-74
2024/04/17 00:50:12;;;;;;;;;2.50;2.17;;;;;10.52;58.97;101347.56;2167351;26;2743967;-74
2024/04/17 00:51:26;;;;;;;;;3.17;2.83;;;;;10.53;59.03;101354.50;2182839;26;2738757;-74
2024/04/17 00:52:40;;;;;;;;;2.00;2.00;;;;;10.53;59.95;101347.50;2181857;26;2738778;-74
2024/04/17 00:53:54;;;;;;;;;4.33;2.00;;;;;10.53;60.19;101339.63;2182047;26;2743965;-74
2024/04/17 00:55:08;;;;;;;;;2.00;2.00;;;;;10.56;60.56;101339.56;2182166;25;2732485;-74
2024/04/17 00:56:22;;;;;;;;;2.17;1.33;;;;;10.61;59.95;101341.19;2182373;26;2734034;-74
2024/04/17 00:57:39;;;;;;;;;5.00;3.00;;;;;10.60;58.95;101348.22;2168246;26;2754351;-74
2024/04/17 00:58:52;;;;;;;;;4.50;3.67;;;;;10.57;59.17;101340.41;2175854;26;2739811;-74
2024/04/17 01:00:07;;;;;;;;;3.00;2.83;;;;;10.58;59.71;101335.13;2180858;26;2746033;-75
2024/04/17 01:01:21;;;;;;;;;3.17;3.00;;;;;10.54;59.82;101335.22;2206597;26;2740307;-75
2024/04/17 01:02:34;;;;;;;;;2.00;2.00;;;;;10.54;59.32;101335.22;2167999;26;2741880;-75
2024/04/17 01:03:48;;;;;;;;;2.33;1.83;;;;;10.47;59.12;101337.09;2168131;26;2739792;-75
2024/04/17 01:05:02;;;;;;;;;2.17;2.17;;;;;10.44;59.62;101334.53;2196052;26;2754864;-75
2024/04/17 01:06:16;;;;;;;;;3.33;3.17;;;;;10.41;59.36;101332.84;2182070;26;2750272;-75
2024/04/17 01:07:31;;;;;;;;;2.67;2.17;;;;;10.42;59.61;101336.34;2182374;25;2742936;-75
2024/04/17 01:08:45;;;;;;;;;3.50;2.00;;;;;10.44;59.79;101334.53;2199802;26;2752296;-75
2024/04/17 01:09:59;;;;;;;;;3.83;3.00;;;;;10.40;59.47;101339.00;2167334;26;2750276;-74
2024/04/17 01:11:13;;;;;;;;;1.83;1.00;;;;;10.34;59.98;101326.88;2182859;26;2729402;-75
2024/04/17 01:12:26;;;;;;;;;2.50;1.67;;;;;10.32;59.53;101330.44;2168458;26;2743931;-75
2024/04/17 01:13:40;;;;;;;;;1.67;1.67;;;;;10.30;59.67;101329.56;2192992;26;2735673;-74
2024/04/17 01:14:54;;;;;;;;;2.00;2.00;;;;;10.27;59.91;101330.53;2170365;26;2735598;-74
2024/04/17 01:16:08;;;;;;;;;2.00;2.00;;;;;10.20;59.68;101331.53;2208169;25;2735613;-74
2024/04/17 01:17:22;;;;;;;;;4.50;2.17;;;;;10.17;60.04;101327.25;2181483;25;2754414;-74
2024/04/17 01:18:37;;;;;;;;;1.83;1.83;;;;;10.19;60.24;101329.84;2182816;25;2736667;-74
2024/04/17 01:19:51;;;;;;;;;1.00;1.00;;;;;10.20;60.32;101328.91;2184776;25;2731463;-74
2024/04/17 01:21:04;;;;;;;;;3.00;2.17;;;;;10.21;59.54;101333.28;2206924;25;2746145;-74
2024/04/17 01:22:18;;;;;;;;;1.83;1.83;;;;;10.19;59.96;101325.44;2182222;25;2739781;-74
2024/04/17 01:23:32;;;;;;;;;2.00;1.33;;;;;10.12;60.95;101319.44;2172271;26;2738798;-75
2024/04/17 01:24:46;;;;;;;;;3.00;1.50;;;;;10.17;60.26;101324.63;2195216;26;2737761;-75
2024/04/17 01:26:00;;;;;;;;;2.33;2.33;;;;;10.16;60.45;101325.50;2208700;25;2739815;-74
2024/04/17 01:27:13;;;;;;;;;3.50;3.00;;;;;10.12;60.10;101324.69;2181162;25;2754394;-74
2024/04/17 01:28:27;;;;;;;;;5.17;2.00;;;;;10.10;60.89;101325.66;2184121;25;2737705;-74
2024/04/17 01:29:41;;;;;;;;;3.00;1.83;;;;;10.06;61.14;101323.97;2183732;26;2729396;-74
2024/04/17 01:30:55;;;;;;;;;2.67;1.83;;;;;10.03;60.80;101327.53;2208223;25;2735660;-74
2024/04/17 01:32:08;;;;;;;;;1.50;1.50;;;;;10.01;60.51;101313.56;2206430;26;2734588;-74
2024/04/17 01:33:22;;;;;;;;;1.83;1.83;;;;;10.05;60.82;101317.00;2181735;26;2739084;-74
2024/04/17 01:34:36;;;;;;;;;3.67;2.00;;;;;10.04;60.35;101321.38;2181753;26;2741101;-74
2024/04/17 01:35:50;;;;;;;;;2.17;2.17;;;;;10.04;61.12;101318.75;2206137;26;2734605;-74
2024/04/17 01:37:03;;;;;;;;;4.17;2.67;;;;;10.05;60.35;101319.63;2179548;26;2737728;-74
2024/04/17 01:38:17;;;;;;;;;3.50;1.83;;;;;10.05;61.31;101317.00;2182067;26;2737723;-75
2024/04/17 01:39:31;;;;;;;;;4.00;3.00;;;;;10.01;60.91;101321.44;2206701;26;2741946;-75
2024/04/17 01:40:45;;;;;;;;;2.67;2.67;;;;;9.98;61.20;101311.00;2182047;26;2750231;-75
2024/04/17 01:41:58;;;;;;;;;8.17;4.00;;;;;9.98;61.24;101314.50;2205446;26;2758550;-75
2024/04/17 01:43:09;;;;;;;;;5.00;5.00;;;;;9.96;60.95;101307.53;2153178;26;2756551;-75
2024/04/17 01:44:23;;;;;;;;;2.00;2.00;;;;;9.98;61.10;101313.63;2208611;25;2741875;-75
2024/04/17 01:45:37;;;;;;;;;4.67;3.50;;;;;9.98;61.12;101313.63;2207033;26;2739811;-75
2024/04/17 01:46:51;;;;;;;;;3.83;2.17;;;;;9.98;61.10;101311.00;2169018;26;2742925;-75
2024/04/17 01:48:04;;;;;;;;;5.50;3.17;;;;;9.97;61.61;101309.28;2194947;26;2754459;-75
2024/04/17 01:49:18;;;;;;;;;2.83;2.83;;;;;9.95;61.99;101314.56;2181718;26;2738180;-75
2024/04/17 01:50:32;;;;;;;;;2.67;2.33;;;;;9.94;61.09;101311.97;2182527;26;2739835;-74
2024/04/17 01:51:46;;;;;;;;;5.50;4.00;;;;;9.89;61.01;101312.94;2177920;26;2737721;-75
2024/04/17 01:52:59;;;;;;;;;3.67;2.83;;;;;9.93;61.50;101320.72;2154722;26;2740838;-74
2024/04/17 01:54:13;;;;;;;;;2.83;2.83;;;;;9.94;61.27;101309.34;2191336;26;2749179;-74
2024/04/17 01:55:27;;;;;;;;;4.67;4.00;;;;;9.96;61.60;101312.81;2173502;26;2740833;-74
2024/04/17 01:56:41;;;;;;;;;2.83;2.83;;;;;9.97;61.25;101312.78;2179946;26;2754363;-75
2024/04/17 01:57:54;;;;;;;;;6.50;3.67;;;;;9.97;61.41;101307.53;2181381;26;2739810;-75
2024/04/17 01:59:08;;;;;;;;;3.00;2.67;;;;;9.98;61.44;101311.88;2183724;25;2754629;-75
2024/04/17 02:00:22;;;;;;;;;3.83;3.00;;;;;10.00;61.44;101315.31;2181633;25;2738793;-75
2024/04/17 02:01:36;;;;;;;;;3.33;3.00;;;;;10.00;61.04;101310.06;2182301;26;2737700;-75
2024/04/17 02:02:50;;;;;;;;;3.00;3.00;;;;;10.03;60.88;101317.03;2173430;26;2734584;-75
2024/04/17 02:04:03;;;;;;;;;4.00;3.00;;;;;10.06;61.44;101318.72;2169417;26;2737720;-75
2024/04/17 02:05:17;;;;;;;;;3.17;3.17;;;;;10.06;61.85;101316.09;2182599;25;2745073;-75
2024/04/17 02:06:31;;;;;;;;;4.50;4.00;;;;;10.09;61.49;101319.53;2182290;25;2749175;-75
2024/04/17 02:07:46;;;;;;;;;5.33;3.50;;;;;10.09;60.90;101309.03;2182251;25;2741903;-75
2024/04/17 02:09:00;;;;;;;;;3.33;3.33;;;;;10.08;61.47;101312.53;2181788;25;2737705;-75
2024/04/17 02:10:14;;;;;;;;;6.17;4.33;;;;;10.11;61.86;101317.72;2181299;26;2748642;-75
2024/04/17 02:11:28;;;;;;;;;4.83;2.83;;;;;10.15;61.47;101320.31;2180482;26;2752276;-75
2024/04/17 02:12:41;;;;;;;;;6.50;3.33;;;;;10.15;61.53;101313.25;2170614;26;2740263;-74
2024/04/17 02:13:55;;;;;;;;;5.17;4.50;;;;;10.13;61.71;101310.69;2166194;26;2750228;-74
2024/04/17 02:15:09;;;;;;;;;1.33;1.33;;;;;10.13;61.12;101318.56;2169147;26;2739788;-74
2024/04/17 02:16:23;;;;;;;;;3.83;3.33;;;;;10.16;60.65;101319.38;2181380;26;2745020;-74
2024/04/17 02:17:36;;;;;;;;;2.17;2.17;;;;;10.10;61.10;101315.16;2183728;25;2736675;-74
2024/04/17 02:18:50;;;;;;;;;2.00;1.67;;;;;10.08;61.77;101317.78;2206502;26;2741855;-74
2024/04/17 02:20:07;;;;;;;;;5.83;3.17;;;;;10.06;61.48;101316.97;2167890;26;2750255;-74
2024/04/17 02:21:21;;;;;;;;;2.00;2.00;;;;;10.05;60.83;101317.84;2168341;26;2744981;-74
2024/04/17 02:22:35;;;;;;;;;2.83;2.83;;;;;10.06;61.73;101322.22;2167707;26;2754429;-74
2024/04/17 02:23:48;;;;;;;;;6.67;4.83;;;;;10.05;61.39;101320.47;2166964;26;2749147;-74
2024/04/17 02:25:03;;;;;;;;;4.00;2.33;;;;;10.05;61.61;101319.63;2167295;26;2752320;-74
2024/04/17 02:26:17;;;;;;;;;5.67;4.33;;;;;10.05;62.04;101327.50;2182931;26;2741882;-74
2024/04/17 02:27:30;;;;;;;;;4.17;2.67;;;;;10.06;61.70;101323.97;2180552;26;2754379;-74
2024/04/17 02:28:44;;;;;;;;;4.33;4.00;;;;;10.09;61.59;101323.91;2182223;26;2746068;-74
2024/04/17 02:29:58;;;;;;;;;3.00;3.00;;;;;10.08;61.10;101333.56;2181895;25;2743970;-74
2024/04/17 02:31:12;;;;;;;;;3.00;2.50;;;;;10.01;61.73;101327.56;2179880;26;2746054;-74
2024/04/17 02:32:25;;;;;;;;;4.00;4.00;;;;;10.04;61.44;101342.41;2181065;26;2742953;-74
2024/04/17 02:33:39;;;;;;;;;6.83;2.83;;;;;10.02;61.47;101329.28;2168385;26;2746041;-74
2024/04/17 02:34:53;;;;;;;;;3.17;3.17;;;;;10.02;60.98;101333.69;2181457;26;2737784;-74
2024/04/17 02:36:07;;;;;;;;;3.50;3.17;;;;;10.02;61.21;101338.94;2173200;26;2745018;-74
2024/04/17 02:37:20;;;;;;;;;2.00;2.00;;;;;10.01;60.88;101337.22;2191989;26;2739779;-74
2024/04/17 02:38:34;;;;;;;;;3.50;3.50;;;;;9.98;61.41;101332.00;2167681;26;2748137;-74
2024/04/17 02:39:48;;;;;;;;;3.33;3.17;;;;;9.96;61.47;101336.44;2193319;26;2752374;-75
2024/04/17 02:41:02;;;;;;;;;3.50;3.50;;;;;9.93;61.79;101332.09;2180169;26;2750200;-75
2024/04/17 02:42:15;;;;;;;;;2.83;2.00;;;;;9.93;60.90;101337.34;2183387;25;2754875;-74
2024/04/17 02:43:29;;;;;;;;;4.00;4.00;;;;;9.89;60.99;101333.06;2181863;25;2751681;-74
2024/04/17 02:44:45;;;;;;;;;4.83;3.00;;;;;9.90;61.21;101326.94;2184568;25;2749435;-74
2024/04/17 02:45:59;;;;;;;;;3.00;3.00;;;;;9.89;61.23;101336.56;2185818;25;2744017;-74
2024/04/17 02:47:12;;;;;;;;;2.00;2.00;;;;;9.89;60.84;101333.94;2185409;25;2748132;-75
2024/04/17 02:48:26;;;;;;;;;4.50;3.00;;;;;9.86;61.42;101339.25;2170025;25;2745058;-75
2024/04/17 02:49:40;;;;;;;;;4.00;3.17;;;;;9.82;61.33;101331.47;2195210;26;2754390;-74
2024/04/17 02:50:54;;;;;;;;;2.50;2.33;;;;;9.76;61.40;101332.44;2181626;26;2741866;-74
2024/04/17 02:52:07;;;;;;;;;2.00;2.00;;;;;9.76;60.92;101338.56;2170553;26;2735652;-74
2024/04/17 02:53:21;;;;;;;;;2.50;2.50;;;;;9.78;61.42;101335.91;2170844;26;2746029;-74
2024/04/17 02:54:35;;;;;;;;;4.50;3.50;;;;;9.80;60.85;101344.66;2169302;26;2750236;-75
2024/04/17 02:55:48;;;;;;;;;4.17;2.83;;;;;9.79;61.67;101342.91;2179245;26;2752296;-74
2024/04/17 02:57:02;;;;;;;;;2.00;2.00;;;;;9.77;61.50;101337.69;2184270;26;2739816;-74
2024/04/17 02:58:16;;;;;;;;;4.83;3.33;;;;;9.78;61.74;101344.66;2170787;26;2754441;-74
2024/04/17 02:59:30;;;;;;;;;2.83;2.83;;;;;9.78;61.64;101342.03;2184074;26;2737708;-74
2024/04/17 03:00:43;;;;;;;;;4.50;3.67;;;;;9.79;61.69;101338.53;2207983;26;2743979;-74
2024/04/17 03:01:57;;;;;;;;;2.67;2.67;;;;;9.77;61.66;101340.31;2172411;26;2751288;-74
2024/04/17 03:03:11;;;;;;;;;3.67;2.67;;;;;9.77;61.63;101345.56;2184052;26;2748109;-74
2024/04/17 03:04:25;;;;;;;;;3.83;3.17;;;;;9.73;61.04;101343.88;2184477;25;2754429;-75
2024/04/17 03:05:38;;;;;;;;;3.17;3.17;;;;;9.71;61.47;101347.41;2184598;26;2734587;-75
2024/04/17 03:06:52;;;;;;;;;1.50;1.50;;;;;9.68;61.13;101349.22;2184248;26;2735657;-75
2024/04/17 03:08:06;;;;;;;;;3.17;2.83;;;;;9.67;62.05;101341.38;2210308;26;2754405;-74
2024/04/17 03:09:20;;;;;;;;;1.00;1.00;;;;;9.67;61.27;101344.88;2176178;26;2737713;-74
2024/04/17 03:10:33;;;;;;;;;3.17;2.00;;;;;9.66;61.61;101332.63;2174413;26;2732531;-74
2024/04/17 03:11:47;;;;;;;;;2.50;2.50;;;;;9.67;61.33;101341.38;2170526;26;2750295;-74
2024/04/17 03:13:01;;;;;;;;;2.17;2.17;;;;;9.66;61.40;101345.75;2169596;26;2734583;-74
2024/04/17 03:14:15;;;;;;;;;2.67;2.67;;;;;9.64;61.45;101344.94;2169896;26;2737755;-74
2024/04/17 03:15:28;;;;;;;;;4.67;4.00;;;;;9.62;62.20;101335.34;2173176;26;2744220;-74
2024/04/17 03:16:42;;;;;;;;;3.83;3.83;;;;;9.61;62.02;101342.34;2172333;26;2750213;-74
2024/04/17 03:17:56;;;;;;;;;2.17;2.17;;;;;9.61;61.47;101344.13;2181078;26;2743975;-74
2024/04/17 03:19:10;;;;;;;;;4.33;4.00;;;;;9.61;61.96;101346.75;2184669;25;2742942;-74
2024/04/17 03:20:23;;;;;;;;;1.67;1.67;;;;;9.57;61.85;101343.31;2185228;25;2740047;-74
2024/04/17 03:21:37;;;;;;;;;5.83;5.17;;;;;9.55;61.66;101342.50;2184123;26;2738782;-74
2024/04/17 03:22:51;;;;;;;;;2.50;2.00;;;;;9.59;61.80;101348.53;2183260;26;2744980;-74
2024/04/17 03:24:05;;;;;;;;;2.33;2.33;;;;;9.59;61.99;101351.16;2210814;25;2734615;-74
2024/04/17 03:25:19;;;;;;;;;2.17;2.00;;;;;9.60;61.70;101350.28;2183273;25;2746038;-74
2024/04/17 03:26:32;;;;;;;;;2.67;2.00;;;;;9.59;61.55;101351.16;2185471;25;2731451;-74
2024/04/17 03:27:46;;;;;;;;;5.83;4.00;;;;;9.59;62.27;101357.28;2184818;26;2734630;-74
2024/04/17 03:29:00;;;;;;;;;5.33;3.50;;;;;9.59;61.69;101349.41;2185443;25;2746066;-74
2024/04/17 03:30:14;;;;;;;;;3.00;2.33;;;;;9.54;61.39;101356.50;2184079;25;2737697;-75
2024/04/17 03:31:24;;;;;;;;;2.67;2.67;;;;;9.52;61.99;101353.03;2183351;25;2746095;-75
2024/04/17 03:32:38;;;;;;;;;3.33;3.33;;;;;9.51;61.70;101353.91;2201399;25;2754375;-74
2024/04/17 03:33:52;;;;;;;;;4.00;3.00;;;;;9.48;61.63;101346.13;2195555;26;2736684;-74
2024/04/17 03:35:07;;;;;;;;;4.83;4.50;;;;;9.50;61.72;101360.06;2170041;26;2747155;-74
2024/04/17 03:36:22;;;;;;;;;4.00;3.33;;;;;9.50;61.41;101352.19;2184782;26;2746070;-74
2024/04/17 03:37:36;;;;;;;;;2.17;0.83;;;;;9.53;62.31;101354.78;2178485;26;2731474;-74
2024/04/17 03:38:49;;;;;;;;;1.67;1.67;;;;;9.53;61.70;101354.78;2210083;25;2741879;-74
2024/04/17 03:40:04;;;;;;;;;5.50;3.33;;;;;9.52;61.99;101359.16;2182424;26;2743980;-74
2024/04/17 03:41:18;;;;;;;;;3.00;2.83;;;;;9.53;62.54;101357.41;2158668;26;2744445;-74
2024/04/17 03:42:31;;;;;;;;;5.00;3.33;;;;;9.53;62.35;101357.41;2171620;26;2754370;-74
2024/04/17 03:43:45;;;;;;;;;3.00;2.67;;;;;9.53;61.95;101355.63;2185440;26;2734659;-74
2024/04/17 03:44:59;;;;;;;;;3.67;2.00;;;;;9.53;62.06;101354.78;2183870;25;2754381;-74
2024/04/17 03:46:13;;;;;;;;;3.83;3.83;;;;;9.55;62.06;101358.25;2182227;25;2752304;-74
2024/04/17 03:47:27;;;;;;;;;6.17;4.33;;;;;9.56;61.95;101355.56;2182048;25;2746053;-74
2024/04/17 03:48:41;;;;;;;;;2.67;2.67;;;;;9.54;62.05;101354.75;2186036;25;2737795;-74
2024/04/17 03:50:01;;;;;;;;;3.00;3.00;;;;;9.59;62.58;101369.53;2170838;26;2754362;-74
2024/04/17 03:51:15;;;;;;;;;4.33;4.33;;;;;9.59;61.50;101362.53;2197782;26;2742517;-74
2024/04/17 03:52:29;;;;;;;;;4.17;4.00;;;;;9.59;62.15;101364.28;2168207;26;2752288;-74
2024/04/17 03:53:43;;;;;;;;;5.83;3.33;;;;;9.59;61.89;101361.66;2168948;26;2754375;-74
2024/04/17 03:54:56;;;;;;;;;4.00;3.83;;;;;9.54;61.91;101360.00;2167229;26;2749202;-74
2024/04/17 03:56:10;;;;;;;;;2.67;2.50;;;;;9.54;61.74;101367.00;2178999;26;2749166;-74
2024/04/17 03:57:25;;;;;;;;;5.50;2.17;;;;;9.52;62.54;101366.16;2181680;26;2750188;-74
2024/04/17 03:58:38;;;;;;;;;2.33;2.17;;;;;9.50;62.45;101362.69;2210489;26;2735637;-74
2024/04/17 03:59:52;;;;;;;;;3.67;3.67;;;;;9.50;62.22;101368.81;2181934;26;2750217;-74
2024/04/17 04:01:06;;;;;;;;;4.67;3.50;;;;;9.50;62.10;101370.56;2181701;25;2746101;-74
2024/04/17 04:02:20;;;;;;;;;3.33;3.00;;;;;9.53;62.37;101365.28;2172841;26;2754363;-74
2024/04/17 04:03:33;;;;;;;;;4.50;3.00;;;;;9.56;62.08;101373.06;2166096;26;2752316;-74
2024/04/17 04:04:47;;;;;;;;;4.17;2.50;;;;;9.56;62.51;101370.44;2167398;26;2748191;-74
2024/04/17 04:06:01;;;;;;;;;4.00;3.00;;;;;9.58;62.18;101371.28;2178760;26;2729380;-74
2024/04/17 04:07:15;;;;;;;;;3.67;3.67;;;;;9.57;62.38;101364.31;2181393;25;2754371;-74
2024/04/17 04:08:28;;;;;;;;;3.00;2.67;;;;;9.60;62.54;101373.91;2183255;25;2738766;-74
2024/04/17 04:09:42;;;;;;;;;5.50;4.67;;;;;9.60;62.55;101374.78;2181651;25;2752319;-74
2024/04/17 04:10:56;;;;;;;;;4.00;2.67;;;;;9.62;61.91;101380.84;2181794;25;2754421;-74
2024/04/17 04:12:10;;;;;;;;;2.83;2.50;;;;;9.63;61.71;101376.47;2171150;26;2748134;-74
2024/04/17 04:13:23;;;;;;;;;5.00;3.00;;;;;9.63;62.43;101377.31;2167193;26;2754398;-74
2024/04/17 04:14:37;;;;;;;;;5.00;2.67;;;;;9.64;62.12;101386.06;2167689;26;2735642;-74
2024/04/17 04:15:54;;;;;;;;;4.67;2.33;;;;;9.62;62.35;101386.09;2200136;26;2736686;-74
2024/04/17 04:17:08;;;;;;;;;2.33;2.33;;;;;9.58;62.39;101387.03;2184299;25;2738796;-74
2024/04/17 04:18:22;;;;;;;;;2.50;1.83;;;;;9.56;61.63;101386.19;2181388;26;2732523;-74
2024/04/17 04:19:33;;;;;;;;;9.00;3.00;;;;;9.55;62.25;101384.47;2141190;26;2762696;-74
2024/04/17 04:20:46;;;;;;;;;5.33;3.50;;;;;9.50;61.77;101381.94;2207856;26;2752346;-74
2024/04/17 04:22:00;;;;;;;;;4.50;3.50;;;;;9.47;61.74;101378.50;2195980;26;2754384;-74
2024/04/17 04:23:14;;;;;;;;;4.00;4.00;;;;;9.45;62.05;101381.16;2168824;26;2752645;-74
2024/04/17 04:24:28;;;;;;;;;4.00;3.17;;;;;9.43;62.48;101380.31;2167046;26;2754872;-74
2024/04/17 04:25:42;;;;;;;;;3.33;3.33;;;;;9.45;62.33;101381.16;2170716;26;2749473;-74
2024/04/17 04:26:56;;;;;;;;;3.50;3.50;;;;;9.44;62.48;101392.53;2169529;26;2743958;-74
2024/04/17 04:28:09;;;;;;;;;2.50;2.50;;;;;9.45;62.69;101391.66;2178931;26;2754402;-74
2024/04/17 04:29:24;;;;;;;;;3.50;3.50;;;;;9.44;62.62;101384.66;2166311;26;2754363;-74
2024/04/17 04:30:40;;;;;;;;;4.83;3.00;;;;;9.45;62.71;101391.66;2173183;26;2752376;-74
2024/04/17 04:31:54;;;;;;;;;3.00;3.00;;;;;9.45;62.31;101386.41;2181784;26;2752276;-74
2024/04/17 04:33:11;;;;;;;;;2.83;2.33;;;;;9.45;62.85;101392.53;2155388;26;2738782;-74
2024/04/17 04:34:25;;;;;;;;;4.00;3.17;;;;;9.44;62.10;101387.28;2168100;26;2750247;-74
2024/04/17 04:35:39;;;;;;;;;5.33;4.00;;;;;9.43;62.54;101390.81;2171846;26;2735637;-74
2024/04/17 04:36:53;;;;;;;;;4.17;2.83;;;;;9.38;62.15;101385.66;2167929;26;2754422;-74
2024/04/17 04:38:06;;;;;;;;;3.83;2.67;;;;;9.38;62.04;101385.66;2168938;26;2738778;-74
2024/04/17 04:39:20;;;;;;;;;4.00;4.00;;;;;9.40;62.21;101386.50;2175226;26;2737725;-74
2024/04/17 04:40:34;;;;;;;;;3.17;3.17;;;;;9.39;62.35;101378.63;2180599;26;2754393;-74
2024/04/17 04:41:48;;;;;;;;;3.83;3.00;;;;;9.40;63.09;101381.25;2181807;25;2754433;-74
2024/04/17 04:43:01;;;;;;;;;3.50;3.50;;;;;9.38;62.93;101383.03;2179665;26;2749183;-74
2024/04/17 04:44:15;;;;;;;;;6.83;3.50;;;;;9.39;62.83;101387.38;2180771;26;2748140;-74
2024/04/17 04:45:29;;;;;;;;;4.00;4.00;;;;;9.40;62.74;101394.34;2180879;26;2739824;-74
2024/04/17 04:46:43;;;;;;;;;3.33;2.83;;;;;9.40;62.44;101386.50;2182055;26;2749189;-74
2024/04/17 04:47:56;;;;;;;;;2.67;2.67;;;;;9.39;62.63;101386.50;2182917;26;2734693;-74
2024/04/17 04:49:10;;;;;;;;;3.00;2.67;;;;;9.39;62.57;101391.75;2171622;25;2754414;-74
2024/04/17 04:50:24;;;;;;;;;2.67;2.67;;;;;9.38;62.73;101384.78;2172312;26;2750688;-74
2024/04/17 04:51:38;;;;;;;;;4.50;3.33;;;;;9.39;62.92;101391.75;2181082;25;2754395;-74
2024/04/17 04:52:51;;;;;;;;;4.50;4.33;;;;;9.39;63.20;101386.50;2173541;26;2749195;-74
2024/04/17 04:54:05;;;;;;;;;2.83;2.67;;;;;9.43;62.59;101391.66;2180608;26;2747072;-74
2024/04/17 04:55:19;;;;;;;;;4.67;3.67;;;;;9.45;63.25;101389.03;2182335;25;2740880;-74
2024/04/17 04:56:32;;;;;;;;;6.00;2.17;;;;;9.48;62.75;101390.72;2209058;25;2734588;-74
2024/04/17 04:57:47;;;;;;;;;2.67;2.67;;;;;9.52;63.03;101392.41;2208030;26;2748147;-74
2024/04/17 04:59:00;;;;;;;;;2.33;2.33;;;;;9.55;63.29;101397.59;2183557;26;2744249;-74
2024/04/17 05:00:14;;;;;;;;;2.50;2.50;;;;;9.55;62.71;101389.72;2181906;26;2731475;-74
2024/04/17 05:01:28;;;;;;;;;5.67;2.00;;;;;9.56;62.20;101397.56;2181497;26;2737984;-74
2024/04/17 05:02:41;;;;;;;;;3.33;1.17;;;;;9.57;62.84;101395.81;2192949;26;2739784;-74
2024/04/17 05:03:55;;;;;;;;;3.50;3.50;;;;;9.52;62.14;101387.16;2181440;26;2754363;-74
2024/04/17 05:05:09;;;;;;;;;4.00;2.33;;;;;9.56;62.46;101394.94;2182292;26;2735657;-74
2024/04/17 05:06:23;;;;;;;;;4.50;4.50;;;;;9.60;62.36;101394.91;2206977;26;2748150;-74
2024/04/17 05:07:36;;;;;;;;;3.50;2.83;;;;;9.62;62.38;101399.22;2180938;26;2754375;-74
2024/04/17 05:08:50;;;;;;;;;4.17;2.33;;;;;9.67;62.83;101407.00;2182277;26;2736682;-74
2024/04/17 05:10:04;;;;;;;;;2.50;1.33;;;;;9.71;63.36;101403.41;2207792;25;2731459;-74
2024/04/17 05:11:18;;;;;;;;;3.67;3.67;;;;;9.76;62.31;101404.22;2206504;25;2725221;-74
2024/04/17 05:12:32;;;;;;;;;4.33;4.00;;;;;9.78;63.07;101401.53;2181885;25;2750231;-74
2024/04/17 05:13:45;;;;;;;;;3.00;3.00;;;;;9.81;62.49;101401.50;2183946;26;2735637;-74
2024/04/17 05:14:59;;;;;;;;;3.33;3.33;;;;;9.82;62.24;101407.63;2180068;25;2750275;-74
2024/04/17 05:16:13;;;;;;;;;5.33;4.83;;;;;9.83;62.63;101404.94;2167201;26;2754382;-74
2024/04/17 05:17:26;;;;;;;;;2.17;2.17;;;;;9.85;62.09;101397.91;2168103;26;2739800;-74
2024/04/17 05:18:40;;;;;;;;;2.00;2.00;;;;;9.90;61.76;101403.09;2167889;26;2735634;-74
2024/04/17 05:19:54;;;;;;;;;2.17;2.17;;;;;9.90;62.42;101398.69;2193614;26;2738759;-74
2024/04/17 05:21:08;;;;;;;;;3.00;3.00;;;;;9.92;62.31;101403.91;2178396;26;2727309;-74
2024/04/17 05:22:21;;;;;;;;;4.67;3.00;;;;;9.93;62.59;101404.75;2208497;25;2744051;-74
2024/04/17 05:23:35;;;;;;;;;2.00;1.67;;;;;9.94;62.11;101409.13;2182405;25;2746041;-74
2024/04/17 05:24:49;;;;;;;;;4.33;4.00;;;;;9.95;62.02;101409.09;2181713;26;2732524;-74
2024/04/17 05:26:03;;;;;;;;;3.33;3.00;;;;;9.96;62.05;101402.97;2178908;25;2750232;-74
2024/04/17 05:27:16;;;;;;;;;3.17;1.33;;;;;9.95;62.15;101401.22;2208023;25;2741145;-74
2024/04/17 05:28:30;;;;;;;;;3.67;2.67;;;;;9.97;61.89;101403.84;2181654;26;2740097;-74
2024/04/17 05:29:44;;;;;;;;;2.67;2.67;;;;;9.93;61.67;101403.00;2181751;26;2746525;-74
2024/04/17 05:30:58;;;;;;;;;4.00;2.50;;;;;9.90;61.81;101390.81;2182897;25;2727340;-74
2024/04/17 05:32:12;;;;;;;;;4.00;2.17;;;;;9.95;62.32;101400.38;2209057;25;2735665;-74
2024/04/17 05:33:26;;;;;;;;;3.83;3.50;;;;;9.94;62.32;101404.75;2181848;25;2741940;-74
2024/04/17 05:34:40;;;;;;;;;3.17;3.00;;;;;9.95;61.76;101405.63;2207413;25;2738792;-74
2024/04/17 05:35:54;;;;;;;;;3.00;2.33;;;;;9.97;62.97;101411.72;2182990;25;2737712;-74
2024/04/17 05:37:07;;;;;;;;;3.83;2.00;;;;;9.98;62.00;101410.78;2204323;26;2746093;-74
2024/04/17 05:38:21;;;;;;;;;2.00;1.33;;;;;10.00;62.40;101402.00;2181572;26;2736659;-74